<?xml version="1.0" encoding="UTF-8" standalone="no" ?>
<gpx xmlns="http://www.topografix.com/GPX/1/1" xmlns:xsi="http://www.w3.org/2001/XMLSchema-instance" xsi:schemaLocation="http://www.topografix.com/GPX/1/1 http://www.topografix.com/GPX/1/1/gpx.xsd" version="1.1" creator="VisuGPX - https://www.visugpx.com">
  <metadata>
    <name>Crête de Roche Bernard</name>
  </metadata>
  <trk>
    <name><![CDATA[2023-03-06 09:48:52]]></name>
    <trkseg>
      <trkpt lat="44.99736" lon="6.47754">
        <ele>1566.12</ele>
        <time>2023-03-05T07:56:25Z</time>
      </trkpt>
      <trkpt lat="44.99733" lon="6.47745">
        <ele>1564.2</ele>
        <time>2023-03-05T07:57:02Z</time>
      </trkpt>
      <trkpt lat="44.99743" lon="6.47736">
        <ele>1564.2</ele>
        <time>2023-03-05T07:57:16Z</time>
      </trkpt>
      <trkpt lat="44.99748" lon="6.47733">
        <ele>1564.2</ele>
        <time>2023-03-05T07:57:35Z</time>
      </trkpt>
      <trkpt lat="44.99743" lon="6.4774">
        <ele>1562.76</ele>
        <time>2023-03-05T07:58:25Z</time>
      </trkpt>
      <trkpt lat="44.9974" lon="6.47736">
        <ele>1565.16</ele>
        <time>2023-03-05T08:01:08Z</time>
      </trkpt>
      <trkpt lat="44.99757" lon="6.47724">
        <ele>1566.12</ele>
        <time>2023-03-05T08:01:50Z</time>
      </trkpt>
      <trkpt lat="44.99773" lon="6.47714">
        <ele>1566.61</ele>
        <time>2023-03-05T08:02:08Z</time>
      </trkpt>
      <trkpt lat="44.99791" lon="6.47708">
        <ele>1567.09</ele>
        <time>2023-03-05T08:02:26Z</time>
      </trkpt>
      <trkpt lat="44.99802" lon="6.47708">
        <ele>1567.09</ele>
        <time>2023-03-05T08:02:37Z</time>
      </trkpt>
      <trkpt lat="44.99815" lon="6.47702">
        <ele>1565.64</ele>
        <time>2023-03-05T08:02:53Z</time>
      </trkpt>
      <trkpt lat="44.99818" lon="6.47678">
        <ele>1563.72</ele>
        <time>2023-03-05T08:03:11Z</time>
      </trkpt>
      <trkpt lat="44.99816" lon="6.47649">
        <ele>1563.72</ele>
        <time>2023-03-05T08:03:32Z</time>
      </trkpt>
      <trkpt lat="44.99816" lon="6.47647">
        <ele>1564.2</ele>
        <time>2023-03-05T08:06:01Z</time>
      </trkpt>
      <trkpt lat="44.99814" lon="6.47635">
        <ele>1566.12</ele>
        <time>2023-03-05T08:06:35Z</time>
      </trkpt>
      <trkpt lat="44.99811" lon="6.47622">
        <ele>1568.05</ele>
        <time>2023-03-05T08:06:49Z</time>
      </trkpt>
      <trkpt lat="44.99802" lon="6.47606">
        <ele>1570.93</ele>
        <time>2023-03-05T08:07:16Z</time>
      </trkpt>
      <trkpt lat="44.99791" lon="6.47606">
        <ele>1571.41</ele>
        <time>2023-03-05T08:07:56Z</time>
      </trkpt>
      <trkpt lat="44.9978" lon="6.47616">
        <ele>1569.01</ele>
        <time>2023-03-05T08:08:11Z</time>
      </trkpt>
      <trkpt lat="44.99765" lon="6.47623">
        <ele>1568.05</ele>
        <time>2023-03-05T08:08:29Z</time>
      </trkpt>
      <trkpt lat="44.99752" lon="6.47628">
        <ele>1567.09</ele>
        <time>2023-03-05T08:08:42Z</time>
      </trkpt>
      <trkpt lat="44.99738" lon="6.47632">
        <ele>1567.09</ele>
        <time>2023-03-05T08:08:58Z</time>
      </trkpt>
      <trkpt lat="44.99723" lon="6.47634">
        <ele>1566.61</ele>
        <time>2023-03-05T08:09:13Z</time>
      </trkpt>
      <trkpt lat="44.99713" lon="6.47634">
        <ele>1566.61</ele>
        <time>2023-03-05T08:09:27Z</time>
      </trkpt>
      <trkpt lat="44.99703" lon="6.47635">
        <ele>1568.05</ele>
        <time>2023-03-05T08:09:41Z</time>
      </trkpt>
      <trkpt lat="44.99679" lon="6.47639">
        <ele>1568.05</ele>
        <time>2023-03-05T08:10:07Z</time>
      </trkpt>
      <trkpt lat="44.99668" lon="6.47635">
        <ele>1568.05</ele>
        <time>2023-03-05T08:10:23Z</time>
      </trkpt>
      <trkpt lat="44.99657" lon="6.47622">
        <ele>1569.97</ele>
        <time>2023-03-05T08:10:48Z</time>
      </trkpt>
      <trkpt lat="44.99646" lon="6.4761">
        <ele>1571.41</ele>
        <time>2023-03-05T08:11:12Z</time>
      </trkpt>
      <trkpt lat="44.9964" lon="6.47598">
        <ele>1574.3</ele>
        <time>2023-03-05T08:11:36Z</time>
      </trkpt>
      <trkpt lat="44.9962" lon="6.47587">
        <ele>1574.3</ele>
        <time>2023-03-05T08:12:00Z</time>
      </trkpt>
      <trkpt lat="44.99607" lon="6.4758">
        <ele>1575.74</ele>
        <time>2023-03-05T08:12:19Z</time>
      </trkpt>
      <trkpt lat="44.99603" lon="6.4757">
        <ele>1575.74</ele>
        <time>2023-03-05T08:13:05Z</time>
      </trkpt>
      <trkpt lat="44.99597" lon="6.47561">
        <ele>1577.18</ele>
        <time>2023-03-05T08:14:42Z</time>
      </trkpt>
      <trkpt lat="44.99596" lon="6.47548">
        <ele>1580.06</ele>
        <time>2023-03-05T08:16:20Z</time>
      </trkpt>
      <trkpt lat="44.99599" lon="6.47537">
        <ele>1581.51</ele>
        <time>2023-03-05T08:16:56Z</time>
      </trkpt>
      <trkpt lat="44.99599" lon="6.47539">
        <ele>1582.95</ele>
        <time>2023-03-05T08:18:10Z</time>
      </trkpt>
      <trkpt lat="44.99598" lon="6.47529">
        <ele>1583.43</ele>
        <time>2023-03-05T08:18:57Z</time>
      </trkpt>
      <trkpt lat="44.99593" lon="6.47515">
        <ele>1585.83</ele>
        <time>2023-03-05T08:19:23Z</time>
      </trkpt>
      <trkpt lat="44.99579" lon="6.47504">
        <ele>1587.75</ele>
        <time>2023-03-05T08:19:56Z</time>
      </trkpt>
      <trkpt lat="44.99573" lon="6.47494">
        <ele>1589.68</ele>
        <time>2023-03-05T08:20:09Z</time>
      </trkpt>
      <trkpt lat="44.99567" lon="6.47483">
        <ele>1591.12</ele>
        <time>2023-03-05T08:20:23Z</time>
      </trkpt>
      <trkpt lat="44.99554" lon="6.47469">
        <ele>1593.52</ele>
        <time>2023-03-05T08:20:50Z</time>
      </trkpt>
      <trkpt lat="44.99552" lon="6.47456">
        <ele>1596.41</ele>
        <time>2023-03-05T08:21:15Z</time>
      </trkpt>
      <trkpt lat="44.99547" lon="6.47445">
        <ele>1598.81</ele>
        <time>2023-03-05T08:21:37Z</time>
      </trkpt>
      <trkpt lat="44.99537" lon="6.47426">
        <ele>1600.73</ele>
        <time>2023-03-05T08:22:04Z</time>
      </trkpt>
      <trkpt lat="44.99525" lon="6.47409">
        <ele>1603.14</ele>
        <time>2023-03-05T08:22:33Z</time>
      </trkpt>
      <trkpt lat="44.99525" lon="6.47395">
        <ele>1606.02</ele>
        <time>2023-03-05T08:22:57Z</time>
      </trkpt>
      <trkpt lat="44.99523" lon="6.47382">
        <ele>1607.46</ele>
        <time>2023-03-05T08:23:20Z</time>
      </trkpt>
      <trkpt lat="44.9953" lon="6.47367">
        <ele>1610.83</ele>
        <time>2023-03-05T08:23:46Z</time>
      </trkpt>
      <trkpt lat="44.99536" lon="6.47354">
        <ele>1614.19</ele>
        <time>2023-03-05T08:24:21Z</time>
      </trkpt>
      <trkpt lat="44.99541" lon="6.47343">
        <ele>1616.59</ele>
        <time>2023-03-05T08:24:45Z</time>
      </trkpt>
      <trkpt lat="44.99548" lon="6.47326">
        <ele>1621.4</ele>
        <time>2023-03-05T08:25:22Z</time>
      </trkpt>
      <trkpt lat="44.99556" lon="6.47313">
        <ele>1624.28</ele>
        <time>2023-03-05T08:25:48Z</time>
      </trkpt>
      <trkpt lat="44.99564" lon="6.47299">
        <ele>1626.69</ele>
        <time>2023-03-05T08:26:14Z</time>
      </trkpt>
      <trkpt lat="44.9957" lon="6.47286">
        <ele>1629.57</ele>
        <time>2023-03-05T08:26:40Z</time>
      </trkpt>
      <trkpt lat="44.99581" lon="6.47271">
        <ele>1632.46</ele>
        <time>2023-03-05T08:27:07Z</time>
      </trkpt>
      <trkpt lat="44.99592" lon="6.47256">
        <ele>1634.38</ele>
        <time>2023-03-05T08:27:36Z</time>
      </trkpt>
      <trkpt lat="44.99594" lon="6.47241">
        <ele>1638.7</ele>
        <time>2023-03-05T08:28:13Z</time>
      </trkpt>
      <trkpt lat="44.99594" lon="6.47225">
        <ele>1641.11</ele>
        <time>2023-03-05T08:28:39Z</time>
      </trkpt>
      <trkpt lat="44.99602" lon="6.47212">
        <ele>1643.03</ele>
        <time>2023-03-05T08:29:04Z</time>
      </trkpt>
      <trkpt lat="44.99602" lon="6.47199">
        <ele>1646.4</ele>
        <time>2023-03-05T08:29:27Z</time>
      </trkpt>
      <trkpt lat="44.99602" lon="6.47183">
        <ele>1650.24</ele>
        <time>2023-03-05T08:29:53Z</time>
      </trkpt>
      <trkpt lat="44.99608" lon="6.47164">
        <ele>1652.16</ele>
        <time>2023-03-05T08:30:19Z</time>
      </trkpt>
      <trkpt lat="44.99615" lon="6.47154">
        <ele>1654.09</ele>
        <time>2023-03-05T08:30:41Z</time>
      </trkpt>
      <trkpt lat="44.99609" lon="6.47143">
        <ele>1656.97</ele>
        <time>2023-03-05T08:31:14Z</time>
      </trkpt>
      <trkpt lat="44.99612" lon="6.47127">
        <ele>1662.26</ele>
        <time>2023-03-05T08:31:54Z</time>
      </trkpt>
      <trkpt lat="44.9962" lon="6.47122">
        <ele>1663.7</ele>
        <time>2023-03-05T08:32:17Z</time>
      </trkpt>
      <trkpt lat="44.99629" lon="6.47125">
        <ele>1664.18</ele>
        <time>2023-03-05T08:32:42Z</time>
      </trkpt>
      <trkpt lat="44.99631" lon="6.47112">
        <ele>1667.06</ele>
        <time>2023-03-05T08:33:07Z</time>
      </trkpt>
      <trkpt lat="44.99631" lon="6.47101">
        <ele>1669.47</ele>
        <time>2023-03-05T08:33:30Z</time>
      </trkpt>
      <trkpt lat="44.99632" lon="6.47087">
        <ele>1673.31</ele>
        <time>2023-03-05T08:33:56Z</time>
      </trkpt>
      <trkpt lat="44.99631" lon="6.47071">
        <ele>1676.68</ele>
        <time>2023-03-05T08:34:19Z</time>
      </trkpt>
      <trkpt lat="44.99628" lon="6.47056">
        <ele>1680.52</ele>
        <time>2023-03-05T08:34:50Z</time>
      </trkpt>
      <trkpt lat="44.99626" lon="6.47042">
        <ele>1684.37</ele>
        <time>2023-03-05T08:35:24Z</time>
      </trkpt>
      <trkpt lat="44.99622" lon="6.47029">
        <ele>1687.73</ele>
        <time>2023-03-05T08:35:57Z</time>
      </trkpt>
      <trkpt lat="44.99624" lon="6.47013">
        <ele>1691.58</ele>
        <time>2023-03-05T08:36:26Z</time>
      </trkpt>
      <trkpt lat="44.99621" lon="6.46997">
        <ele>1695.9</ele>
        <time>2023-03-05T08:36:58Z</time>
      </trkpt>
      <trkpt lat="44.99622" lon="6.46983">
        <ele>1698.79</ele>
        <time>2023-03-05T08:37:25Z</time>
      </trkpt>
      <trkpt lat="44.9962" lon="6.4697">
        <ele>1701.19</ele>
        <time>2023-03-05T08:37:53Z</time>
      </trkpt>
      <trkpt lat="44.9962" lon="6.46955">
        <ele>1704.55</ele>
        <time>2023-03-05T08:38:54Z</time>
      </trkpt>
      <trkpt lat="44.99618" lon="6.46942">
        <ele>1707.92</ele>
        <time>2023-03-05T08:39:16Z</time>
      </trkpt>
      <trkpt lat="44.99618" lon="6.46929">
        <ele>1710.8</ele>
        <time>2023-03-05T08:39:41Z</time>
      </trkpt>
      <trkpt lat="44.99617" lon="6.46915">
        <ele>1714.17</ele>
        <time>2023-03-05T08:40:07Z</time>
      </trkpt>
      <trkpt lat="44.99618" lon="6.46902">
        <ele>1716.57</ele>
        <time>2023-03-05T08:40:33Z</time>
      </trkpt>
      <trkpt lat="44.99621" lon="6.46884">
        <ele>1720.9</ele>
        <time>2023-03-05T08:41:07Z</time>
      </trkpt>
      <trkpt lat="44.99623" lon="6.46867">
        <ele>1724.26</ele>
        <time>2023-03-05T08:41:40Z</time>
      </trkpt>
      <trkpt lat="44.99622" lon="6.46854">
        <ele>1727.63</ele>
        <time>2023-03-05T08:42:03Z</time>
      </trkpt>
      <trkpt lat="44.99621" lon="6.46835">
        <ele>1731.95</ele>
        <time>2023-03-05T08:42:41Z</time>
      </trkpt>
      <trkpt lat="44.99621" lon="6.46817">
        <ele>1735.8</ele>
        <time>2023-03-05T08:43:19Z</time>
      </trkpt>
      <trkpt lat="44.9962" lon="6.468">
        <ele>1739.64</ele>
        <time>2023-03-05T08:43:57Z</time>
      </trkpt>
      <trkpt lat="44.9962" lon="6.46785">
        <ele>1743.97</ele>
        <time>2023-03-05T08:44:30Z</time>
      </trkpt>
      <trkpt lat="44.99626" lon="6.46772">
        <ele>1747.81</ele>
        <time>2023-03-05T08:45:04Z</time>
      </trkpt>
      <trkpt lat="44.99632" lon="6.46761">
        <ele>1750.7</ele>
        <time>2023-03-05T08:45:27Z</time>
      </trkpt>
      <trkpt lat="44.99629" lon="6.46747">
        <ele>1755.02</ele>
        <time>2023-03-05T08:45:58Z</time>
      </trkpt>
      <trkpt lat="44.99622" lon="6.46735">
        <ele>1757.91</ele>
        <time>2023-03-05T08:46:25Z</time>
      </trkpt>
      <trkpt lat="44.99625" lon="6.46723">
        <ele>1761.27</ele>
        <time>2023-03-05T08:46:48Z</time>
      </trkpt>
      <trkpt lat="44.99632" lon="6.46705">
        <ele>1766.56</ele>
        <time>2023-03-05T08:47:34Z</time>
      </trkpt>
      <trkpt lat="44.99638" lon="6.46694">
        <ele>1769.92</ele>
        <time>2023-03-05T08:48:03Z</time>
      </trkpt>
      <trkpt lat="44.99634" lon="6.46678">
        <ele>1773.77</ele>
        <time>2023-03-05T08:48:38Z</time>
      </trkpt>
      <trkpt lat="44.99641" lon="6.46666">
        <ele>1777.13</ele>
        <time>2023-03-05T08:49:08Z</time>
      </trkpt>
      <trkpt lat="44.99642" lon="6.46655">
        <ele>1781.94</ele>
        <time>2023-03-05T08:49:44Z</time>
      </trkpt>
      <trkpt lat="44.99642" lon="6.46636">
        <ele>1786.27</ele>
        <time>2023-03-05T08:50:22Z</time>
      </trkpt>
      <trkpt lat="44.99647" lon="6.46623">
        <ele>1790.59</ele>
        <time>2023-03-05T08:50:59Z</time>
      </trkpt>
      <trkpt lat="44.99648" lon="6.46609">
        <ele>1794.92</ele>
        <time>2023-03-05T08:51:36Z</time>
      </trkpt>
      <trkpt lat="44.99644" lon="6.46597">
        <ele>1799.24</ele>
        <time>2023-03-05T08:52:10Z</time>
      </trkpt>
      <trkpt lat="44.99647" lon="6.46583">
        <ele>1803.09</ele>
        <time>2023-03-05T08:52:45Z</time>
      </trkpt>
      <trkpt lat="44.99642" lon="6.4657">
        <ele>1807.42</ele>
        <time>2023-03-05T08:53:33Z</time>
      </trkpt>
      <trkpt lat="44.99651" lon="6.46557">
        <ele>1811.26</ele>
        <time>2023-03-05T08:54:10Z</time>
      </trkpt>
      <trkpt lat="44.99644" lon="6.46549">
        <ele>1813.66</ele>
        <time>2023-03-05T08:54:32Z</time>
      </trkpt>
      <trkpt lat="44.99647" lon="6.46537">
        <ele>1817.99</ele>
        <time>2023-03-05T08:55:04Z</time>
      </trkpt>
      <trkpt lat="44.99644" lon="6.46523">
        <ele>1821.84</ele>
        <time>2023-03-05T08:55:45Z</time>
      </trkpt>
      <trkpt lat="44.99638" lon="6.46509">
        <ele>1827.12</ele>
        <time>2023-03-05T08:56:29Z</time>
      </trkpt>
      <trkpt lat="44.99642" lon="6.465">
        <ele>1829.53</ele>
        <time>2023-03-05T08:57:59Z</time>
      </trkpt>
      <trkpt lat="44.99638" lon="6.46489">
        <ele>1833.37</ele>
        <time>2023-03-05T08:58:32Z</time>
      </trkpt>
      <trkpt lat="44.99631" lon="6.46483">
        <ele>1836.26</ele>
        <time>2023-03-05T08:58:55Z</time>
      </trkpt>
      <trkpt lat="44.99632" lon="6.46469">
        <ele>1841.06</ele>
        <time>2023-03-05T08:59:31Z</time>
      </trkpt>
      <trkpt lat="44.99634" lon="6.46454">
        <ele>1845.39</ele>
        <time>2023-03-05T09:00:07Z</time>
      </trkpt>
      <trkpt lat="44.99623" lon="6.46448">
        <ele>1849.23</ele>
        <time>2023-03-05T09:00:42Z</time>
      </trkpt>
      <trkpt lat="44.99618" lon="6.46439">
        <ele>1853.56</ele>
        <time>2023-03-05T09:01:17Z</time>
      </trkpt>
      <trkpt lat="44.99624" lon="6.46429">
        <ele>1855.48</ele>
        <time>2023-03-05T09:01:41Z</time>
      </trkpt>
      <trkpt lat="44.9963" lon="6.46415">
        <ele>1859.81</ele>
        <time>2023-03-05T09:02:17Z</time>
      </trkpt>
      <trkpt lat="44.9962" lon="6.46408">
        <ele>1864.13</ele>
        <time>2023-03-05T09:02:50Z</time>
      </trkpt>
      <trkpt lat="44.99623" lon="6.46398">
        <ele>1866.54</ele>
        <time>2023-03-05T09:03:26Z</time>
      </trkpt>
      <trkpt lat="44.99618" lon="6.4639">
        <ele>1870.86</ele>
        <time>2023-03-05T09:04:59Z</time>
      </trkpt>
      <trkpt lat="44.99614" lon="6.46377">
        <ele>1875.67</ele>
        <time>2023-03-05T09:05:28Z</time>
      </trkpt>
      <trkpt lat="44.99621" lon="6.46365">
        <ele>1878.55</ele>
        <time>2023-03-05T09:05:53Z</time>
      </trkpt>
      <trkpt lat="44.99617" lon="6.46352">
        <ele>1883.84</ele>
        <time>2023-03-05T09:06:34Z</time>
      </trkpt>
      <trkpt lat="44.99609" lon="6.46345">
        <ele>1886.72</ele>
        <time>2023-03-05T09:06:58Z</time>
      </trkpt>
      <trkpt lat="44.99619" lon="6.4633">
        <ele>1891.05</ele>
        <time>2023-03-05T09:07:32Z</time>
      </trkpt>
      <trkpt lat="44.99616" lon="6.46321">
        <ele>1895.38</ele>
        <time>2023-03-05T09:08:04Z</time>
      </trkpt>
      <trkpt lat="44.99604" lon="6.46316">
        <ele>1897.3</ele>
        <time>2023-03-05T09:08:32Z</time>
      </trkpt>
      <trkpt lat="44.99606" lon="6.46302">
        <ele>1902.11</ele>
        <time>2023-03-05T09:09:10Z</time>
      </trkpt>
      <trkpt lat="44.99615" lon="6.46291">
        <ele>1905.95</ele>
        <time>2023-03-05T09:09:37Z</time>
      </trkpt>
      <trkpt lat="44.99605" lon="6.46282">
        <ele>1910.28</ele>
        <time>2023-03-05T09:10:12Z</time>
      </trkpt>
      <trkpt lat="44.99598" lon="6.46274">
        <ele>1913.64</ele>
        <time>2023-03-05T09:10:35Z</time>
      </trkpt>
      <trkpt lat="44.99598" lon="6.46264">
        <ele>1917.97</ele>
        <time>2023-03-05T09:11:11Z</time>
      </trkpt>
      <trkpt lat="44.99594" lon="6.46258">
        <ele>1920.85</ele>
        <time>2023-03-05T09:11:49Z</time>
      </trkpt>
      <trkpt lat="44.99602" lon="6.46247">
        <ele>1924.22</ele>
        <time>2023-03-05T09:12:14Z</time>
      </trkpt>
      <trkpt lat="44.99592" lon="6.46238">
        <ele>1929.02</ele>
        <time>2023-03-05T09:12:51Z</time>
      </trkpt>
      <trkpt lat="44.99598" lon="6.46226">
        <ele>1932.87</ele>
        <time>2023-03-05T09:13:27Z</time>
      </trkpt>
      <trkpt lat="44.99597" lon="6.46218">
        <ele>1936.71</ele>
        <time>2023-03-05T09:14:00Z</time>
      </trkpt>
      <trkpt lat="44.99592" lon="6.46209">
        <ele>1940.56</ele>
        <time>2023-03-05T09:14:35Z</time>
      </trkpt>
      <trkpt lat="44.99585" lon="6.46204">
        <ele>1942.96</ele>
        <time>2023-03-05T09:15:34Z</time>
      </trkpt>
      <trkpt lat="44.99583" lon="6.46197">
        <ele>1945.36</ele>
        <time>2023-03-05T09:16:39Z</time>
      </trkpt>
      <trkpt lat="44.99585" lon="6.46189">
        <ele>1943.44</ele>
        <time>2023-03-05T09:17:48Z</time>
      </trkpt>
      <trkpt lat="44.9958" lon="6.46198">
        <ele>1944.4</ele>
        <time>2023-03-05T09:19:23Z</time>
      </trkpt>
      <trkpt lat="44.99583" lon="6.46195">
        <ele>1946.81</ele>
        <time>2023-03-05T09:20:54Z</time>
      </trkpt>
      <trkpt lat="44.99586" lon="6.46192">
        <ele>1947.29</ele>
        <time>2023-03-05T09:21:48Z</time>
      </trkpt>
      <trkpt lat="44.99592" lon="6.46181">
        <ele>1950.65</ele>
        <time>2023-03-05T09:22:10Z</time>
      </trkpt>
      <trkpt lat="44.99599" lon="6.46172">
        <ele>1954.02</ele>
        <time>2023-03-05T09:22:35Z</time>
      </trkpt>
      <trkpt lat="44.99607" lon="6.46163">
        <ele>1957.86</ele>
        <time>2023-03-05T09:23:00Z</time>
      </trkpt>
      <trkpt lat="44.99596" lon="6.46153">
        <ele>1962.67</ele>
        <time>2023-03-05T09:23:40Z</time>
      </trkpt>
      <trkpt lat="44.99587" lon="6.46144">
        <ele>1966.03</ele>
        <time>2023-03-05T09:24:06Z</time>
      </trkpt>
      <trkpt lat="44.99593" lon="6.46133">
        <ele>1970.84</ele>
        <time>2023-03-05T09:24:40Z</time>
      </trkpt>
      <trkpt lat="44.996" lon="6.46125">
        <ele>1974.2</ele>
        <time>2023-03-05T09:25:06Z</time>
      </trkpt>
      <trkpt lat="44.9961" lon="6.4612">
        <ele>1978.53</ele>
        <time>2023-03-05T09:25:41Z</time>
      </trkpt>
      <trkpt lat="44.996" lon="6.46109">
        <ele>1981.41</ele>
        <time>2023-03-05T09:26:07Z</time>
      </trkpt>
      <trkpt lat="44.99602" lon="6.46096">
        <ele>1987.18</ele>
        <time>2023-03-05T09:26:45Z</time>
      </trkpt>
      <trkpt lat="44.99597" lon="6.46086">
        <ele>1990.07</ele>
        <time>2023-03-05T09:27:34Z</time>
      </trkpt>
      <trkpt lat="44.99598" lon="6.46082">
        <ele>1990.07</ele>
        <time>2023-03-05T09:29:26Z</time>
      </trkpt>
      <trkpt lat="44.99594" lon="6.46087">
        <ele>1990.07</ele>
        <time>2023-03-05T09:31:12Z</time>
      </trkpt>
      <trkpt lat="44.9959" lon="6.46082">
        <ele>1991.51</ele>
        <time>2023-03-05T09:32:31Z</time>
      </trkpt>
      <trkpt lat="44.9958" lon="6.46082">
        <ele>1995.35</ele>
        <time>2023-03-05T09:33:06Z</time>
      </trkpt>
      <trkpt lat="44.99582" lon="6.4607">
        <ele>1998.72</ele>
        <time>2023-03-05T09:33:41Z</time>
      </trkpt>
      <trkpt lat="44.99585" lon="6.4606">
        <ele>2002.56</ele>
        <time>2023-03-05T09:34:39Z</time>
      </trkpt>
      <trkpt lat="44.99574" lon="6.46057">
        <ele>2006.41</ele>
        <time>2023-03-05T09:35:13Z</time>
      </trkpt>
      <trkpt lat="44.9957" lon="6.46053">
        <ele>2010.25</ele>
        <time>2023-03-05T09:35:55Z</time>
      </trkpt>
      <trkpt lat="44.99559" lon="6.46056">
        <ele>2013.14</ele>
        <time>2023-03-05T09:36:28Z</time>
      </trkpt>
      <trkpt lat="44.99561" lon="6.46049">
        <ele>2015.54</ele>
        <time>2023-03-05T09:37:11Z</time>
      </trkpt>
      <trkpt lat="44.99565" lon="6.46034">
        <ele>2018.91</ele>
        <time>2023-03-05T09:38:00Z</time>
      </trkpt>
      <trkpt lat="44.9957" lon="6.46022">
        <ele>2022.75</ele>
        <time>2023-03-05T09:38:37Z</time>
      </trkpt>
      <trkpt lat="44.99572" lon="6.46014">
        <ele>2014.58</ele>
        <time>2023-03-05T09:40:08Z</time>
      </trkpt>
      <trkpt lat="44.99573" lon="6.4602">
        <ele>2022.27</ele>
        <time>2023-03-05T09:41:43Z</time>
      </trkpt>
      <trkpt lat="44.99569" lon="6.46013">
        <ele>2027.08</ele>
        <time>2023-03-05T09:42:42Z</time>
      </trkpt>
      <trkpt lat="44.9956" lon="6.46009">
        <ele>2030.92</ele>
        <time>2023-03-05T09:43:20Z</time>
      </trkpt>
      <trkpt lat="44.99562" lon="6.45999">
        <ele>2034.77</ele>
        <time>2023-03-05T09:43:55Z</time>
      </trkpt>
      <trkpt lat="44.99557" lon="6.45991">
        <ele>2039.57</ele>
        <time>2023-03-05T09:44:37Z</time>
      </trkpt>
      <trkpt lat="44.99557" lon="6.45981">
        <ele>2044.38</ele>
        <time>2023-03-05T09:45:27Z</time>
      </trkpt>
      <trkpt lat="44.99559" lon="6.45974">
        <ele>2047.75</ele>
        <time>2023-03-05T09:46:18Z</time>
      </trkpt>
      <trkpt lat="44.99554" lon="6.45966">
        <ele>2052.55</ele>
        <time>2023-03-05T09:47:03Z</time>
      </trkpt>
      <trkpt lat="44.99563" lon="6.4596">
        <ele>2054.96</ele>
        <time>2023-03-05T09:47:38Z</time>
      </trkpt>
      <trkpt lat="44.99556" lon="6.45955">
        <ele>2058.32</ele>
        <time>2023-03-05T09:48:21Z</time>
      </trkpt>
      <trkpt lat="44.99558" lon="6.45944">
        <ele>2062.65</ele>
        <time>2023-03-05T09:49:11Z</time>
      </trkpt>
      <trkpt lat="44.9956" lon="6.45938">
        <ele>2066.01</ele>
        <time>2023-03-05T09:49:45Z</time>
      </trkpt>
      <trkpt lat="44.99558" lon="6.45933">
        <ele>2068.41</ele>
        <time>2023-03-05T09:51:26Z</time>
      </trkpt>
      <trkpt lat="44.99558" lon="6.45932">
        <ele>2068.41</ele>
        <time>2023-03-05T09:54:03Z</time>
      </trkpt>
      <trkpt lat="44.99556" lon="6.45929">
        <ele>2069.86</ele>
        <time>2023-03-05T09:56:23Z</time>
      </trkpt>
      <trkpt lat="44.99561" lon="6.45923">
        <ele>2073.22</ele>
        <time>2023-03-05T09:56:55Z</time>
      </trkpt>
      <trkpt lat="44.99563" lon="6.45915">
        <ele>2077.07</ele>
        <time>2023-03-05T09:58:07Z</time>
      </trkpt>
      <trkpt lat="44.99561" lon="6.45909">
        <ele>2080.43</ele>
        <time>2023-03-05T09:59:18Z</time>
      </trkpt>
      <trkpt lat="44.9957" lon="6.45906">
        <ele>2083.79</ele>
        <time>2023-03-05T10:00:10Z</time>
      </trkpt>
      <trkpt lat="44.99565" lon="6.45896">
        <ele>2087.64</ele>
        <time>2023-03-05T10:01:09Z</time>
      </trkpt>
      <trkpt lat="44.99571" lon="6.45891">
        <ele>2091.97</ele>
        <time>2023-03-05T10:01:51Z</time>
      </trkpt>
      <trkpt lat="44.99567" lon="6.45883">
        <ele>2095.33</ele>
        <time>2023-03-05T10:02:26Z</time>
      </trkpt>
      <trkpt lat="44.99575" lon="6.45876">
        <ele>2100.14</ele>
        <time>2023-03-05T10:03:12Z</time>
      </trkpt>
      <trkpt lat="44.99576" lon="6.45871">
        <ele>2102.54</ele>
        <time>2023-03-05T10:03:57Z</time>
      </trkpt>
      <trkpt lat="44.99587" lon="6.45869">
        <ele>2105.91</ele>
        <time>2023-03-05T10:04:34Z</time>
      </trkpt>
      <trkpt lat="44.99578" lon="6.45861">
        <ele>2109.27</ele>
        <time>2023-03-05T10:05:10Z</time>
      </trkpt>
      <trkpt lat="44.99584" lon="6.45859">
        <ele>2111.67</ele>
        <time>2023-03-05T10:06:03Z</time>
      </trkpt>
      <trkpt lat="44.99595" lon="6.45858">
        <ele>2115.04</ele>
        <time>2023-03-05T10:06:38Z</time>
      </trkpt>
      <trkpt lat="44.99587" lon="6.45849">
        <ele>2118.88</ele>
        <time>2023-03-05T10:07:22Z</time>
      </trkpt>
      <trkpt lat="44.99597" lon="6.45845">
        <ele>2122.25</ele>
        <time>2023-03-05T10:08:16Z</time>
      </trkpt>
      <trkpt lat="44.99599" lon="6.45838">
        <ele>2126.57</ele>
        <time>2023-03-05T10:09:04Z</time>
      </trkpt>
      <trkpt lat="44.99607" lon="6.45832">
        <ele>2129.94</ele>
        <time>2023-03-05T10:09:53Z</time>
      </trkpt>
      <trkpt lat="44.99617" lon="6.45832">
        <ele>2134.26</ele>
        <time>2023-03-05T10:10:30Z</time>
      </trkpt>
      <trkpt lat="44.99612" lon="6.45818">
        <ele>2137.63</ele>
        <time>2023-03-05T10:11:04Z</time>
      </trkpt>
      <trkpt lat="44.99621" lon="6.45813">
        <ele>2142.44</ele>
        <time>2023-03-05T10:11:50Z</time>
      </trkpt>
      <trkpt lat="44.99623" lon="6.45806">
        <ele>2145.8</ele>
        <time>2023-03-05T10:12:38Z</time>
      </trkpt>
      <trkpt lat="44.99628" lon="6.45801">
        <ele>2150.13</ele>
        <time>2023-03-05T10:13:25Z</time>
      </trkpt>
      <trkpt lat="44.99625" lon="6.4579">
        <ele>2154.45</ele>
        <time>2023-03-05T10:14:15Z</time>
      </trkpt>
      <trkpt lat="44.9963" lon="6.45788">
        <ele>2156.86</ele>
        <time>2023-03-05T10:14:50Z</time>
      </trkpt>
      <trkpt lat="44.99638" lon="6.45787">
        <ele>2159.74</ele>
        <time>2023-03-05T10:15:26Z</time>
      </trkpt>
      <trkpt lat="44.99631" lon="6.45778">
        <ele>2162.14</ele>
        <time>2023-03-05T10:15:49Z</time>
      </trkpt>
      <trkpt lat="44.99639" lon="6.45776">
        <ele>2165.03</ele>
        <time>2023-03-05T10:16:28Z</time>
      </trkpt>
      <trkpt lat="44.99638" lon="6.45772">
        <ele>2167.43</ele>
        <time>2023-03-05T10:17:01Z</time>
      </trkpt>
      <trkpt lat="44.99627" lon="6.45765">
        <ele>2168.87</ele>
        <time>2023-03-05T10:17:26Z</time>
      </trkpt>
      <trkpt lat="44.99618" lon="6.45761">
        <ele>2171.27</ele>
        <time>2023-03-05T10:17:50Z</time>
      </trkpt>
      <trkpt lat="44.99611" lon="6.45753">
        <ele>2175.12</ele>
        <time>2023-03-05T10:19:09Z</time>
      </trkpt>
      <trkpt lat="44.99612" lon="6.45754">
        <ele>2175.6</ele>
        <time>2023-03-05T10:22:14Z</time>
      </trkpt>
      <trkpt lat="44.99612" lon="6.45743">
        <ele>2178.97</ele>
        <time>2023-03-05T10:23:01Z</time>
      </trkpt>
      <trkpt lat="44.99614" lon="6.45744">
        <ele>2179.93</ele>
        <time>2023-03-05T10:24:48Z</time>
      </trkpt>
      <trkpt lat="44.99617" lon="6.4574">
        <ele>2178.97</ele>
        <time>2023-03-05T10:25:56Z</time>
      </trkpt>
      <trkpt lat="44.99617" lon="6.45734">
        <ele>2183.77</ele>
        <time>2023-03-05T10:26:50Z</time>
      </trkpt>
      <trkpt lat="44.99612" lon="6.45725">
        <ele>2188.1</ele>
        <time>2023-03-05T10:27:33Z</time>
      </trkpt>
      <trkpt lat="44.99608" lon="6.45717">
        <ele>2191.94</ele>
        <time>2023-03-05T10:28:09Z</time>
      </trkpt>
      <trkpt lat="44.9961" lon="6.45709">
        <ele>2195.31</ele>
        <time>2023-03-05T10:28:41Z</time>
      </trkpt>
      <trkpt lat="44.99609" lon="6.45703">
        <ele>2197.71</ele>
        <time>2023-03-05T10:29:13Z</time>
      </trkpt>
      <trkpt lat="44.99614" lon="6.45697">
        <ele>2201.56</ele>
        <time>2023-03-05T10:29:46Z</time>
      </trkpt>
      <trkpt lat="44.99605" lon="6.4569">
        <ele>2204.44</ele>
        <time>2023-03-05T10:30:11Z</time>
      </trkpt>
      <trkpt lat="44.99613" lon="6.45683">
        <ele>2207.81</ele>
        <time>2023-03-05T10:30:44Z</time>
      </trkpt>
      <trkpt lat="44.99607" lon="6.45672">
        <ele>2211.17</ele>
        <time>2023-03-05T10:31:13Z</time>
      </trkpt>
      <trkpt lat="44.99617" lon="6.45669">
        <ele>2214.05</ele>
        <time>2023-03-05T10:31:39Z</time>
      </trkpt>
      <trkpt lat="44.99613" lon="6.4566">
        <ele>2216.94</ele>
        <time>2023-03-05T10:32:15Z</time>
      </trkpt>
      <trkpt lat="44.9961" lon="6.45651">
        <ele>2219.34</ele>
        <time>2023-03-05T10:32:41Z</time>
      </trkpt>
      <trkpt lat="44.99614" lon="6.45643">
        <ele>2223.67</ele>
        <time>2023-03-05T10:33:14Z</time>
      </trkpt>
      <trkpt lat="44.99615" lon="6.45634">
        <ele>2227.51</ele>
        <time>2023-03-05T10:33:48Z</time>
      </trkpt>
      <trkpt lat="44.99624" lon="6.45631">
        <ele>2231.36</ele>
        <time>2023-03-05T10:34:22Z</time>
      </trkpt>
      <trkpt lat="44.99626" lon="6.45624">
        <ele>2235.2</ele>
        <time>2023-03-05T10:34:58Z</time>
      </trkpt>
      <trkpt lat="44.9962" lon="6.45614">
        <ele>2237.61</ele>
        <time>2023-03-05T10:35:23Z</time>
      </trkpt>
      <trkpt lat="44.99627" lon="6.45609">
        <ele>2241.93</ele>
        <time>2023-03-05T10:36:07Z</time>
      </trkpt>
      <trkpt lat="44.99625" lon="6.45601">
        <ele>2245.3</ele>
        <time>2023-03-05T10:36:43Z</time>
      </trkpt>
      <trkpt lat="44.99618" lon="6.45592">
        <ele>2248.66</ele>
        <time>2023-03-05T10:37:22Z</time>
      </trkpt>
      <trkpt lat="44.99607" lon="6.45585">
        <ele>2252.03</ele>
        <time>2023-03-05T10:38:44Z</time>
      </trkpt>
      <trkpt lat="44.996" lon="6.45574">
        <ele>2253.95</ele>
        <time>2023-03-05T10:39:04Z</time>
      </trkpt>
      <trkpt lat="44.99592" lon="6.45564">
        <ele>2255.39</ele>
        <time>2023-03-05T10:39:28Z</time>
      </trkpt>
      <trkpt lat="44.99581" lon="6.45555">
        <ele>2258.27</ele>
        <time>2023-03-05T10:40:02Z</time>
      </trkpt>
      <trkpt lat="44.99573" lon="6.45547">
        <ele>2260.2</ele>
        <time>2023-03-05T10:40:25Z</time>
      </trkpt>
      <trkpt lat="44.99566" lon="6.45538">
        <ele>2261.64</ele>
        <time>2023-03-05T10:40:50Z</time>
      </trkpt>
      <trkpt lat="44.99557" lon="6.45528">
        <ele>2263.08</ele>
        <time>2023-03-05T10:41:14Z</time>
      </trkpt>
      <trkpt lat="44.99548" lon="6.45519">
        <ele>2265.48</ele>
        <time>2023-03-05T10:41:36Z</time>
      </trkpt>
      <trkpt lat="44.99538" lon="6.45509">
        <ele>2267.89</ele>
        <time>2023-03-05T10:42:00Z</time>
      </trkpt>
      <trkpt lat="44.99529" lon="6.45494">
        <ele>2269.33</ele>
        <time>2023-03-05T10:42:25Z</time>
      </trkpt>
      <trkpt lat="44.99521" lon="6.45483">
        <ele>2272.21</ele>
        <time>2023-03-05T10:42:52Z</time>
      </trkpt>
      <trkpt lat="44.99512" lon="6.45471">
        <ele>2275.1</ele>
        <time>2023-03-05T10:43:16Z</time>
      </trkpt>
      <trkpt lat="44.99508" lon="6.45464">
        <ele>2277.02</ele>
        <time>2023-03-05T10:44:13Z</time>
      </trkpt>
      <trkpt lat="44.99509" lon="6.45454">
        <ele>2279.9</ele>
        <time>2023-03-05T10:45:20Z</time>
      </trkpt>
      <trkpt lat="44.9951" lon="6.4544">
        <ele>2284.23</ele>
        <time>2023-03-05T10:45:53Z</time>
      </trkpt>
      <trkpt lat="44.99513" lon="6.45427">
        <ele>2287.11</ele>
        <time>2023-03-05T10:46:25Z</time>
      </trkpt>
      <trkpt lat="44.9952" lon="6.45419">
        <ele>2291.44</ele>
        <time>2023-03-05T10:46:59Z</time>
      </trkpt>
      <trkpt lat="44.99521" lon="6.45408">
        <ele>2294.8</ele>
        <time>2023-03-05T10:48:02Z</time>
      </trkpt>
      <trkpt lat="44.99523" lon="6.45409">
        <ele>2293.36</ele>
        <time>2023-03-05T10:49:28Z</time>
      </trkpt>
      <trkpt lat="44.99525" lon="6.45403">
        <ele>2296.25</ele>
        <time>2023-03-05T10:51:44Z</time>
      </trkpt>
      <trkpt lat="44.99522" lon="6.45386">
        <ele>2300.57</ele>
        <time>2023-03-05T10:52:20Z</time>
      </trkpt>
      <trkpt lat="44.99527" lon="6.45373">
        <ele>2304.42</ele>
        <time>2023-03-05T10:53:04Z</time>
      </trkpt>
      <trkpt lat="44.99524" lon="6.4536">
        <ele>2308.74</ele>
        <time>2023-03-05T10:53:39Z</time>
      </trkpt>
      <trkpt lat="44.99531" lon="6.45357">
        <ele>2311.15</ele>
        <time>2023-03-05T10:54:11Z</time>
      </trkpt>
      <trkpt lat="44.9953" lon="6.45342">
        <ele>2314.03</ele>
        <time>2023-03-05T10:54:36Z</time>
      </trkpt>
      <trkpt lat="44.99524" lon="6.45328">
        <ele>2316.91</ele>
        <time>2023-03-05T10:55:02Z</time>
      </trkpt>
      <trkpt lat="44.99518" lon="6.45315">
        <ele>2320.76</ele>
        <time>2023-03-05T10:55:36Z</time>
      </trkpt>
      <trkpt lat="44.99527" lon="6.45303">
        <ele>2323.16</ele>
        <time>2023-03-05T10:56:12Z</time>
      </trkpt>
      <trkpt lat="44.99528" lon="6.4529">
        <ele>2327.97</ele>
        <time>2023-03-05T10:56:55Z</time>
      </trkpt>
      <trkpt lat="44.99525" lon="6.45278">
        <ele>2330.85</ele>
        <time>2023-03-05T10:57:20Z</time>
      </trkpt>
      <trkpt lat="44.99523" lon="6.45264">
        <ele>2333.74</ele>
        <time>2023-03-05T10:57:49Z</time>
      </trkpt>
      <trkpt lat="44.99534" lon="6.4526">
        <ele>2338.06</ele>
        <time>2023-03-05T10:58:33Z</time>
      </trkpt>
      <trkpt lat="44.99545" lon="6.45258">
        <ele>2341.91</ele>
        <time>2023-03-05T10:59:09Z</time>
      </trkpt>
      <trkpt lat="44.99556" lon="6.4526">
        <ele>2345.75</ele>
        <time>2023-03-05T10:59:45Z</time>
      </trkpt>
      <trkpt lat="44.99563" lon="6.4525">
        <ele>2349.12</ele>
        <time>2023-03-05T11:00:17Z</time>
      </trkpt>
      <trkpt lat="44.99566" lon="6.45232">
        <ele>2353.93</ele>
        <time>2023-03-05T11:00:59Z</time>
      </trkpt>
      <trkpt lat="44.99568" lon="6.45214">
        <ele>2358.73</ele>
        <time>2023-03-05T11:01:42Z</time>
      </trkpt>
      <trkpt lat="44.99571" lon="6.45202">
        <ele>2362.58</ele>
        <time>2023-03-05T11:02:16Z</time>
      </trkpt>
      <trkpt lat="44.99575" lon="6.45189">
        <ele>2366.9</ele>
        <time>2023-03-05T11:02:52Z</time>
      </trkpt>
      <trkpt lat="44.99583" lon="6.45175">
        <ele>2371.23</ele>
        <time>2023-03-05T11:03:32Z</time>
      </trkpt>
      <trkpt lat="44.99592" lon="6.45164">
        <ele>2375.07</ele>
        <time>2023-03-05T11:04:08Z</time>
      </trkpt>
      <trkpt lat="44.99597" lon="6.45149">
        <ele>2378.92</ele>
        <time>2023-03-05T11:04:43Z</time>
      </trkpt>
      <trkpt lat="44.99594" lon="6.4513">
        <ele>2382.76</ele>
        <time>2023-03-05T11:05:22Z</time>
      </trkpt>
      <trkpt lat="44.99589" lon="6.45117">
        <ele>2386.13</ele>
        <time>2023-03-05T11:05:50Z</time>
      </trkpt>
      <trkpt lat="44.99583" lon="6.45103">
        <ele>2390.94</ele>
        <time>2023-03-05T11:06:32Z</time>
      </trkpt>
      <trkpt lat="44.99576" lon="6.4509">
        <ele>2393.82</ele>
        <time>2023-03-05T11:07:04Z</time>
      </trkpt>
      <trkpt lat="44.99584" lon="6.45081">
        <ele>2397.67</ele>
        <time>2023-03-05T11:07:39Z</time>
      </trkpt>
      <trkpt lat="44.99593" lon="6.45078">
        <ele>2400.55</ele>
        <time>2023-03-05T11:08:06Z</time>
      </trkpt>
      <trkpt lat="44.99591" lon="6.45066">
        <ele>2403.91</ele>
        <time>2023-03-05T11:08:39Z</time>
      </trkpt>
      <trkpt lat="44.99584" lon="6.45053">
        <ele>2407.76</ele>
        <time>2023-03-05T11:09:20Z</time>
      </trkpt>
      <trkpt lat="44.99576" lon="6.45039">
        <ele>2412.09</ele>
        <time>2023-03-05T11:09:58Z</time>
      </trkpt>
      <trkpt lat="44.99571" lon="6.45025">
        <ele>2416.89</ele>
        <time>2023-03-05T11:10:37Z</time>
      </trkpt>
      <trkpt lat="44.99565" lon="6.45016">
        <ele>2420.26</ele>
        <time>2023-03-05T11:11:12Z</time>
      </trkpt>
      <trkpt lat="44.99573" lon="6.45008">
        <ele>2424.1</ele>
        <time>2023-03-05T11:11:56Z</time>
      </trkpt>
      <trkpt lat="44.99582" lon="6.45004">
        <ele>2426.02</ele>
        <time>2023-03-05T11:12:20Z</time>
      </trkpt>
      <trkpt lat="44.99591" lon="6.45002">
        <ele>2428.43</ele>
        <time>2023-03-05T11:12:46Z</time>
      </trkpt>
      <trkpt lat="44.99596" lon="6.44998">
        <ele>2432.27</ele>
        <time>2023-03-05T11:13:31Z</time>
      </trkpt>
      <trkpt lat="44.99588" lon="6.44986">
        <ele>2434.2</ele>
        <time>2023-03-05T11:13:55Z</time>
      </trkpt>
      <trkpt lat="44.9958" lon="6.44973">
        <ele>2438.04</ele>
        <time>2023-03-05T11:14:31Z</time>
      </trkpt>
      <trkpt lat="44.99586" lon="6.44969">
        <ele>2440.92</ele>
        <time>2023-03-05T11:15:16Z</time>
      </trkpt>
      <trkpt lat="44.99598" lon="6.44966">
        <ele>2444.77</ele>
        <time>2023-03-05T11:15:50Z</time>
      </trkpt>
      <trkpt lat="44.99608" lon="6.44971">
        <ele>2448.13</ele>
        <time>2023-03-05T11:16:24Z</time>
      </trkpt>
      <trkpt lat="44.99619" lon="6.44971">
        <ele>2451.02</ele>
        <time>2023-03-05T11:16:55Z</time>
      </trkpt>
      <trkpt lat="44.99629" lon="6.44974">
        <ele>2453.9</ele>
        <time>2023-03-05T11:17:31Z</time>
      </trkpt>
      <trkpt lat="44.99626" lon="6.44961">
        <ele>2456.31</ele>
        <time>2023-03-05T11:18:10Z</time>
      </trkpt>
      <trkpt lat="44.99617" lon="6.4495">
        <ele>2458.23</ele>
        <time>2023-03-05T11:18:45Z</time>
      </trkpt>
      <trkpt lat="44.9961" lon="6.4494">
        <ele>2460.63</ele>
        <time>2023-03-05T11:19:11Z</time>
      </trkpt>
      <trkpt lat="44.99603" lon="6.44928">
        <ele>2463.04</ele>
        <time>2023-03-05T11:19:43Z</time>
      </trkpt>
      <trkpt lat="44.99601" lon="6.44925">
        <ele>2464.48</ele>
        <time>2023-03-05T11:20:28Z</time>
      </trkpt>
      <trkpt lat="44.99614" lon="6.4493">
        <ele>2467.84</ele>
        <time>2023-03-05T11:21:05Z</time>
      </trkpt>
      <trkpt lat="44.99626" lon="6.44933">
        <ele>2471.21</ele>
        <time>2023-03-05T11:21:38Z</time>
      </trkpt>
      <trkpt lat="44.99637" lon="6.44936">
        <ele>2474.09</ele>
        <time>2023-03-05T11:22:16Z</time>
      </trkpt>
      <trkpt lat="44.99648" lon="6.44939">
        <ele>2476.97</ele>
        <time>2023-03-05T11:23:24Z</time>
      </trkpt>
      <trkpt lat="44.99643" lon="6.44926">
        <ele>2479.38</ele>
        <time>2023-03-05T11:24:01Z</time>
      </trkpt>
      <trkpt lat="44.99635" lon="6.44912">
        <ele>2482.74</ele>
        <time>2023-03-05T11:24:34Z</time>
      </trkpt>
      <trkpt lat="44.99627" lon="6.44904">
        <ele>2485.15</ele>
        <time>2023-03-05T11:25:09Z</time>
      </trkpt>
      <trkpt lat="44.99637" lon="6.44905">
        <ele>2488.03</ele>
        <time>2023-03-05T11:26:11Z</time>
      </trkpt>
      <trkpt lat="44.99647" lon="6.44908">
        <ele>2490.43</ele>
        <time>2023-03-05T11:26:36Z</time>
      </trkpt>
      <trkpt lat="44.99659" lon="6.44916">
        <ele>2493.8</ele>
        <time>2023-03-05T11:27:14Z</time>
      </trkpt>
      <trkpt lat="44.99662" lon="6.44913">
        <ele>2495.72</ele>
        <time>2023-03-05T11:28:05Z</time>
      </trkpt>
      <trkpt lat="44.99657" lon="6.44898">
        <ele>2498.12</ele>
        <time>2023-03-05T11:29:15Z</time>
      </trkpt>
      <trkpt lat="44.99651" lon="6.44887">
        <ele>2500.05</ele>
        <time>2023-03-05T11:29:44Z</time>
      </trkpt>
      <trkpt lat="44.99644" lon="6.44878">
        <ele>2501.97</ele>
        <time>2023-03-05T11:30:07Z</time>
      </trkpt>
      <trkpt lat="44.99644" lon="6.44876">
        <ele>2503.89</ele>
        <time>2023-03-05T11:30:54Z</time>
      </trkpt>
      <trkpt lat="44.99656" lon="6.44879">
        <ele>2507.26</ele>
        <time>2023-03-05T11:31:30Z</time>
      </trkpt>
      <trkpt lat="44.99659" lon="6.44875">
        <ele>2510.62</ele>
        <time>2023-03-05T11:32:19Z</time>
      </trkpt>
      <trkpt lat="44.99658" lon="6.44869">
        <ele>2513.02</ele>
        <time>2023-03-05T11:33:06Z</time>
      </trkpt>
      <trkpt lat="44.99666" lon="6.44874">
        <ele>2514.95</ele>
        <time>2023-03-05T11:33:44Z</time>
      </trkpt>
      <trkpt lat="44.99662" lon="6.44862">
        <ele>2518.31</ele>
        <time>2023-03-05T11:34:24Z</time>
      </trkpt>
      <trkpt lat="44.99669" lon="6.44865">
        <ele>2520.71</ele>
        <time>2023-03-05T11:35:20Z</time>
      </trkpt>
      <trkpt lat="44.99661" lon="6.44855">
        <ele>2523.12</ele>
        <time>2023-03-05T11:35:56Z</time>
      </trkpt>
      <trkpt lat="44.99671" lon="6.44858">
        <ele>2524.56</ele>
        <time>2023-03-05T11:36:18Z</time>
      </trkpt>
      <trkpt lat="44.99674" lon="6.44852">
        <ele>2528.89</ele>
        <time>2023-03-05T11:37:07Z</time>
      </trkpt>
      <trkpt lat="44.9968" lon="6.44854">
        <ele>2531.77</ele>
        <time>2023-03-05T11:38:02Z</time>
      </trkpt>
      <trkpt lat="44.99676" lon="6.44842">
        <ele>2533.69</ele>
        <time>2023-03-05T11:38:32Z</time>
      </trkpt>
      <trkpt lat="44.9968" lon="6.44843">
        <ele>2536.1</ele>
        <time>2023-03-05T11:39:03Z</time>
      </trkpt>
      <trkpt lat="44.99688" lon="6.4485">
        <ele>2538.02</ele>
        <time>2023-03-05T11:39:26Z</time>
      </trkpt>
      <trkpt lat="44.99687" lon="6.4484">
        <ele>2540.42</ele>
        <time>2023-03-05T11:40:08Z</time>
      </trkpt>
      <trkpt lat="44.99682" lon="6.44829">
        <ele>2543.31</ele>
        <time>2023-03-05T11:40:31Z</time>
      </trkpt>
      <trkpt lat="44.99692" lon="6.44833">
        <ele>2546.19</ele>
        <time>2023-03-05T11:41:23Z</time>
      </trkpt>
      <trkpt lat="44.99694" lon="6.44839">
        <ele>2545.23</ele>
        <time>2023-03-05T11:42:54Z</time>
      </trkpt>
      <trkpt lat="44.99696" lon="6.44839">
        <ele>2544.27</ele>
        <time>2023-03-05T11:44:44Z</time>
      </trkpt>
      <trkpt lat="44.99696" lon="6.44837">
        <ele>2538.5</ele>
        <time>2023-03-05T11:49:47Z</time>
      </trkpt>
      <trkpt lat="44.99696" lon="6.44837">
        <ele>2544.75</ele>
        <time>2023-03-05T11:54:09Z</time>
      </trkpt>
      <trkpt lat="44.99694" lon="6.44838">
        <ele>2544.27</ele>
        <time>2023-03-05T12:00:35Z</time>
      </trkpt>
      <trkpt lat="44.99695" lon="6.44838">
        <ele>2543.31</ele>
        <time>2023-03-05T12:05:26Z</time>
      </trkpt>
      <trkpt lat="44.99695" lon="6.44838">
        <ele>2544.75</ele>
        <time>2023-03-05T12:11:04Z</time>
      </trkpt>
      <trkpt lat="44.99695" lon="6.44839">
        <ele>2545.23</ele>
        <time>2023-03-05T12:17:06Z</time>
      </trkpt>
      <trkpt lat="44.99693" lon="6.44834">
        <ele>2545.71</ele>
        <time>2023-03-05T12:19:36Z</time>
      </trkpt>
      <trkpt lat="44.99684" lon="6.4483">
        <ele>2544.27</ele>
        <time>2023-03-05T12:21:16Z</time>
      </trkpt>
      <trkpt lat="44.99683" lon="6.44835">
        <ele>2540.9</ele>
        <time>2023-03-05T12:23:46Z</time>
      </trkpt>
      <trkpt lat="44.99677" lon="6.44849">
        <ele>2536.58</ele>
        <time>2023-03-05T12:23:52Z</time>
      </trkpt>
      <trkpt lat="44.99673" lon="6.44857">
        <ele>2529.37</ele>
        <time>2023-03-05T12:23:57Z</time>
      </trkpt>
      <trkpt lat="44.99667" lon="6.44868">
        <ele>2520.71</ele>
        <time>2023-03-05T12:24:15Z</time>
      </trkpt>
      <trkpt lat="44.99659" lon="6.44882">
        <ele>2512.54</ele>
        <time>2023-03-05T12:24:29Z</time>
      </trkpt>
      <trkpt lat="44.99649" lon="6.44882">
        <ele>2508.22</ele>
        <time>2023-03-05T12:24:33Z</time>
      </trkpt>
      <trkpt lat="44.99646" lon="6.44895">
        <ele>2501.49</ele>
        <time>2023-03-05T12:24:37Z</time>
      </trkpt>
      <trkpt lat="44.99644" lon="6.44909">
        <ele>2491.87</ele>
        <time>2023-03-05T12:24:42Z</time>
      </trkpt>
      <trkpt lat="44.9963" lon="6.44913">
        <ele>2484.18</ele>
        <time>2023-03-05T12:24:46Z</time>
      </trkpt>
      <trkpt lat="44.99627" lon="6.44933">
        <ele>2475.53</ele>
        <time>2023-03-05T12:24:52Z</time>
      </trkpt>
      <trkpt lat="44.99623" lon="6.44951">
        <ele>2466.4</ele>
        <time>2023-03-05T12:24:58Z</time>
      </trkpt>
      <trkpt lat="44.99615" lon="6.44947">
        <ele>2462.07</ele>
        <time>2023-03-05T12:25:06Z</time>
      </trkpt>
      <trkpt lat="44.99621" lon="6.44963">
        <ele>2458.23</ele>
        <time>2023-03-05T12:25:17Z</time>
      </trkpt>
      <trkpt lat="44.99613" lon="6.44974">
        <ele>2453.9</ele>
        <time>2023-03-05T12:25:21Z</time>
      </trkpt>
      <trkpt lat="44.99614" lon="6.44993">
        <ele>2446.21</ele>
        <time>2023-03-05T12:25:25Z</time>
      </trkpt>
      <trkpt lat="44.99611" lon="6.45006">
        <ele>2437.08</ele>
        <time>2023-03-05T12:25:30Z</time>
      </trkpt>
      <trkpt lat="44.99601" lon="6.45018">
        <ele>2430.35</ele>
        <time>2023-03-05T12:25:34Z</time>
      </trkpt>
      <trkpt lat="44.99605" lon="6.4503">
        <ele>2425.54</ele>
        <time>2023-03-05T12:25:36Z</time>
      </trkpt>
      <trkpt lat="44.99596" lon="6.45037">
        <ele>2421.22</ele>
        <time>2023-03-05T12:25:38Z</time>
      </trkpt>
      <trkpt lat="44.99584" lon="6.45051">
        <ele>2413.53</ele>
        <time>2023-03-05T12:25:43Z</time>
      </trkpt>
      <trkpt lat="44.99592" lon="6.45061">
        <ele>2409.2</ele>
        <time>2023-03-05T12:25:45Z</time>
      </trkpt>
      <trkpt lat="44.99586" lon="6.45081">
        <ele>2404.88</ele>
        <time>2023-03-05T12:25:48Z</time>
      </trkpt>
      <trkpt lat="44.99574" lon="6.45084">
        <ele>2400.55</ele>
        <time>2023-03-05T12:25:50Z</time>
      </trkpt>
      <trkpt lat="44.99578" lon="6.45106">
        <ele>2394.3</ele>
        <time>2023-03-05T12:27:16Z</time>
      </trkpt>
      <trkpt lat="44.99572" lon="6.4513">
        <ele>2388.05</ele>
        <time>2023-03-05T12:27:20Z</time>
      </trkpt>
      <trkpt lat="44.99566" lon="6.45144">
        <ele>2382.76</ele>
        <time>2023-03-05T12:27:22Z</time>
      </trkpt>
      <trkpt lat="44.99559" lon="6.45153">
        <ele>2378.92</ele>
        <time>2023-03-05T12:27:24Z</time>
      </trkpt>
      <trkpt lat="44.99563" lon="6.45168">
        <ele>2374.59</ele>
        <time>2023-03-05T12:27:26Z</time>
      </trkpt>
      <trkpt lat="44.99555" lon="6.45178">
        <ele>2370.27</ele>
        <time>2023-03-05T12:27:28Z</time>
      </trkpt>
      <trkpt lat="44.9955" lon="6.4519">
        <ele>2366.9</ele>
        <time>2023-03-05T12:27:30Z</time>
      </trkpt>
      <trkpt lat="44.99554" lon="6.45209">
        <ele>2363.06</ele>
        <time>2023-03-05T12:27:32Z</time>
      </trkpt>
      <trkpt lat="44.99546" lon="6.45217">
        <ele>2358.25</ele>
        <time>2023-03-05T12:27:34Z</time>
      </trkpt>
      <trkpt lat="44.99544" lon="6.45231">
        <ele>2353.93</ele>
        <time>2023-03-05T12:27:36Z</time>
      </trkpt>
      <trkpt lat="44.99551" lon="6.45243">
        <ele>2350.56</ele>
        <time>2023-03-05T12:27:38Z</time>
      </trkpt>
      <trkpt lat="44.9954" lon="6.45256">
        <ele>2346.23</ele>
        <time>2023-03-05T12:27:41Z</time>
      </trkpt>
      <trkpt lat="44.99543" lon="6.45269">
        <ele>2340.47</ele>
        <time>2023-03-05T12:27:44Z</time>
      </trkpt>
      <trkpt lat="44.99538" lon="6.45287">
        <ele>2336.62</ele>
        <time>2023-03-05T12:28:02Z</time>
      </trkpt>
      <trkpt lat="44.99537" lon="6.453">
        <ele>2332.3</ele>
        <time>2023-03-05T12:28:04Z</time>
      </trkpt>
      <trkpt lat="44.99546" lon="6.45315">
        <ele>2328.93</ele>
        <time>2023-03-05T12:28:07Z</time>
      </trkpt>
      <trkpt lat="44.99553" lon="6.4533">
        <ele>2328.45</ele>
        <time>2023-03-05T12:28:17Z</time>
      </trkpt>
      <trkpt lat="44.99546" lon="6.45347">
        <ele>2324.12</ele>
        <time>2023-03-05T12:28:30Z</time>
      </trkpt>
      <trkpt lat="44.99545" lon="6.45362">
        <ele>2320.76</ele>
        <time>2023-03-05T12:28:32Z</time>
      </trkpt>
      <trkpt lat="44.9955" lon="6.4539">
        <ele>2313.55</ele>
        <time>2023-03-05T12:28:37Z</time>
      </trkpt>
      <trkpt lat="44.99542" lon="6.45399">
        <ele>2310.19</ele>
        <time>2023-03-05T12:28:39Z</time>
      </trkpt>
      <trkpt lat="44.99533" lon="6.45407">
        <ele>2304.42</ele>
        <time>2023-03-05T12:28:41Z</time>
      </trkpt>
      <trkpt lat="44.99534" lon="6.45427">
        <ele>2299.61</ele>
        <time>2023-03-05T12:28:43Z</time>
      </trkpt>
      <trkpt lat="44.99538" lon="6.45442">
        <ele>2296.25</ele>
        <time>2023-03-05T12:28:45Z</time>
      </trkpt>
      <trkpt lat="44.99544" lon="6.45465">
        <ele>2290.96</ele>
        <time>2023-03-05T12:28:50Z</time>
      </trkpt>
      <trkpt lat="44.99549" lon="6.45475">
        <ele>2288.08</ele>
        <time>2023-03-05T12:29:09Z</time>
      </trkpt>
      <trkpt lat="44.99557" lon="6.45488">
        <ele>2285.67</ele>
        <time>2023-03-05T12:30:04Z</time>
      </trkpt>
      <trkpt lat="44.9955" lon="6.45499">
        <ele>2280.87</ele>
        <time>2023-03-05T12:30:07Z</time>
      </trkpt>
      <trkpt lat="44.99557" lon="6.45511">
        <ele>2276.06</ele>
        <time>2023-03-05T12:30:09Z</time>
      </trkpt>
      <trkpt lat="44.99556" lon="6.45536">
        <ele>2266.93</ele>
        <time>2023-03-05T12:30:13Z</time>
      </trkpt>
      <trkpt lat="44.99566" lon="6.45548">
        <ele>2262.6</ele>
        <time>2023-03-05T12:30:15Z</time>
      </trkpt>
      <trkpt lat="44.99571" lon="6.45569">
        <ele>2256.83</ele>
        <time>2023-03-05T12:30:20Z</time>
      </trkpt>
      <trkpt lat="44.99577" lon="6.45581">
        <ele>2251.06</ele>
        <time>2023-03-05T12:30:22Z</time>
      </trkpt>
      <trkpt lat="44.99582" lon="6.45593">
        <ele>2245.78</ele>
        <time>2023-03-05T12:30:25Z</time>
      </trkpt>
      <trkpt lat="44.99582" lon="6.45616">
        <ele>2238.57</ele>
        <time>2023-03-05T12:30:29Z</time>
      </trkpt>
      <trkpt lat="44.99582" lon="6.45637">
        <ele>2230.88</ele>
        <time>2023-03-05T12:30:33Z</time>
      </trkpt>
      <trkpt lat="44.99595" lon="6.45647">
        <ele>2227.51</ele>
        <time>2023-03-05T12:30:36Z</time>
      </trkpt>
      <trkpt lat="44.99601" lon="6.45653">
        <ele>2227.51</ele>
        <time>2023-03-05T12:32:11Z</time>
      </trkpt>
      <trkpt lat="44.99617" lon="6.45655">
        <ele>2225.59</ele>
        <time>2023-03-05T12:32:14Z</time>
      </trkpt>
      <trkpt lat="44.99619" lon="6.45673">
        <ele>2219.34</ele>
        <time>2023-03-05T12:32:20Z</time>
      </trkpt>
      <trkpt lat="44.99614" lon="6.45683">
        <ele>2213.57</ele>
        <time>2023-03-05T12:32:49Z</time>
      </trkpt>
      <trkpt lat="44.99609" lon="6.45701">
        <ele>2205.4</ele>
        <time>2023-03-05T12:32:57Z</time>
      </trkpt>
      <trkpt lat="44.99615" lon="6.45713">
        <ele>2199.63</ele>
        <time>2023-03-05T12:33:02Z</time>
      </trkpt>
      <trkpt lat="44.99615" lon="6.45727">
        <ele>2192.9</ele>
        <time>2023-03-05T12:33:12Z</time>
      </trkpt>
      <trkpt lat="44.99613" lon="6.4574">
        <ele>2188.58</ele>
        <time>2023-03-05T12:33:17Z</time>
      </trkpt>
      <trkpt lat="44.99617" lon="6.45749">
        <ele>2182.81</ele>
        <time>2023-03-05T12:33:24Z</time>
      </trkpt>
      <trkpt lat="44.99628" lon="6.45758">
        <ele>2180.89</ele>
        <time>2023-03-05T12:33:30Z</time>
      </trkpt>
      <trkpt lat="44.99646" lon="6.45769">
        <ele>2177.52</ele>
        <time>2023-03-05T12:33:34Z</time>
      </trkpt>
      <trkpt lat="44.99645" lon="6.45781">
        <ele>2173.2</ele>
        <time>2023-03-05T12:33:40Z</time>
      </trkpt>
      <trkpt lat="44.99633" lon="6.45787">
        <ele>2165.99</ele>
        <time>2023-03-05T12:33:53Z</time>
      </trkpt>
      <trkpt lat="44.99628" lon="6.45803">
        <ele>2158.3</ele>
        <time>2023-03-05T12:33:58Z</time>
      </trkpt>
      <trkpt lat="44.99626" lon="6.45815">
        <ele>2150.13</ele>
        <time>2023-03-05T12:34:06Z</time>
      </trkpt>
      <trkpt lat="44.99617" lon="6.4582">
        <ele>2145.8</ele>
        <time>2023-03-05T12:34:10Z</time>
      </trkpt>
      <trkpt lat="44.99613" lon="6.45828">
        <ele>2142.44</ele>
        <time>2023-03-05T12:34:20Z</time>
      </trkpt>
      <trkpt lat="44.99603" lon="6.45835">
        <ele>2135.71</ele>
        <time>2023-03-05T12:34:26Z</time>
      </trkpt>
      <trkpt lat="44.99603" lon="6.45847">
        <ele>2130.42</ele>
        <time>2023-03-05T12:34:39Z</time>
      </trkpt>
      <trkpt lat="44.99594" lon="6.45852">
        <ele>2126.57</ele>
        <time>2023-03-05T12:35:47Z</time>
      </trkpt>
      <trkpt lat="44.99591" lon="6.45863">
        <ele>2121.29</ele>
        <time>2023-03-05T12:35:54Z</time>
      </trkpt>
      <trkpt lat="44.99579" lon="6.45864">
        <ele>2116.48</ele>
        <time>2023-03-05T12:36:00Z</time>
      </trkpt>
      <trkpt lat="44.99583" lon="6.45875">
        <ele>2112.15</ele>
        <time>2023-03-05T12:36:04Z</time>
      </trkpt>
      <trkpt lat="44.99579" lon="6.45886">
        <ele>2104.94</ele>
        <time>2023-03-05T12:36:09Z</time>
      </trkpt>
      <trkpt lat="44.99567" lon="6.45894">
        <ele>2099.18</ele>
        <time>2023-03-05T12:36:15Z</time>
      </trkpt>
      <trkpt lat="44.99566" lon="6.45906">
        <ele>2093.41</ele>
        <time>2023-03-05T12:36:23Z</time>
      </trkpt>
      <trkpt lat="44.9956" lon="6.45919">
        <ele>2085.72</ele>
        <time>2023-03-05T12:36:33Z</time>
      </trkpt>
      <trkpt lat="44.99565" lon="6.4593">
        <ele>2079.95</ele>
        <time>2023-03-05T12:36:46Z</time>
      </trkpt>
      <trkpt lat="44.99558" lon="6.45934">
        <ele>2075.14</ele>
        <time>2023-03-05T12:37:08Z</time>
      </trkpt>
      <trkpt lat="44.99556" lon="6.4595">
        <ele>2068.41</ele>
        <time>2023-03-05T12:37:17Z</time>
      </trkpt>
      <trkpt lat="44.99555" lon="6.45969">
        <ele>2059.76</ele>
        <time>2023-03-05T12:37:33Z</time>
      </trkpt>
      <trkpt lat="44.99562" lon="6.45976">
        <ele>2054.47</ele>
        <time>2023-03-05T12:37:38Z</time>
      </trkpt>
      <trkpt lat="44.99564" lon="6.45989">
        <ele>2049.19</ele>
        <time>2023-03-05T12:37:50Z</time>
      </trkpt>
      <trkpt lat="44.99561" lon="6.46004">
        <ele>2041.98</ele>
        <time>2023-03-05T12:38:02Z</time>
      </trkpt>
      <trkpt lat="44.9957" lon="6.4601">
        <ele>2038.13</ele>
        <time>2023-03-05T12:38:07Z</time>
      </trkpt>
      <trkpt lat="44.99575" lon="6.46028">
        <ele>2029</ele>
        <time>2023-03-05T12:38:16Z</time>
      </trkpt>
      <trkpt lat="44.99579" lon="6.46039">
        <ele>2022.27</ele>
        <time>2023-03-05T12:38:24Z</time>
      </trkpt>
      <trkpt lat="44.99575" lon="6.46052">
        <ele>2017.94</ele>
        <time>2023-03-05T12:38:29Z</time>
      </trkpt>
      <trkpt lat="44.99583" lon="6.46065">
        <ele>2009.77</ele>
        <time>2023-03-05T12:39:02Z</time>
      </trkpt>
      <trkpt lat="44.99582" lon="6.46076">
        <ele>2005.93</ele>
        <time>2023-03-05T12:39:06Z</time>
      </trkpt>
      <trkpt lat="44.99591" lon="6.46089">
        <ele>1998.72</ele>
        <time>2023-03-05T12:39:14Z</time>
      </trkpt>
      <trkpt lat="44.99609" lon="6.46099">
        <ele>1995.83</ele>
        <time>2023-03-05T12:39:18Z</time>
      </trkpt>
      <trkpt lat="44.99608" lon="6.46116">
        <ele>1989.1</ele>
        <time>2023-03-05T12:40:39Z</time>
      </trkpt>
      <trkpt lat="44.99606" lon="6.46137">
        <ele>1981.9</ele>
        <time>2023-03-05T12:40:44Z</time>
      </trkpt>
      <trkpt lat="44.99603" lon="6.46156">
        <ele>1973.24</ele>
        <time>2023-03-05T12:40:48Z</time>
      </trkpt>
      <trkpt lat="44.99614" lon="6.46159">
        <ele>1970.36</ele>
        <time>2023-03-05T12:41:03Z</time>
      </trkpt>
      <trkpt lat="44.99607" lon="6.46168">
        <ele>1967.48</ele>
        <time>2023-03-05T12:41:07Z</time>
      </trkpt>
      <trkpt lat="44.99596" lon="6.46173">
        <ele>1964.59</ele>
        <time>2023-03-05T12:41:11Z</time>
      </trkpt>
      <trkpt lat="44.99593" lon="6.46187">
        <ele>1958.34</ele>
        <time>2023-03-05T12:41:17Z</time>
      </trkpt>
      <trkpt lat="44.99593" lon="6.462">
        <ele>1954.98</ele>
        <time>2023-03-05T12:41:20Z</time>
      </trkpt>
      <trkpt lat="44.99601" lon="6.4621">
        <ele>1947.77</ele>
        <time>2023-03-05T12:41:25Z</time>
      </trkpt>
      <trkpt lat="44.9962" lon="6.46219">
        <ele>1944.88</ele>
        <time>2023-03-05T12:41:31Z</time>
      </trkpt>
      <trkpt lat="44.99622" lon="6.46246">
        <ele>1936.23</ele>
        <time>2023-03-05T12:41:38Z</time>
      </trkpt>
      <trkpt lat="44.99611" lon="6.46249">
        <ele>1932.87</ele>
        <time>2023-03-05T12:41:41Z</time>
      </trkpt>
      <trkpt lat="44.99601" lon="6.4626">
        <ele>1930.46</ele>
        <time>2023-03-05T12:41:45Z</time>
      </trkpt>
      <trkpt lat="44.99615" lon="6.46269">
        <ele>1924.22</ele>
        <time>2023-03-05T12:41:51Z</time>
      </trkpt>
      <trkpt lat="44.99608" lon="6.4628">
        <ele>1919.41</ele>
        <time>2023-03-05T12:41:55Z</time>
      </trkpt>
      <trkpt lat="44.99613" lon="6.46294">
        <ele>1915.08</ele>
        <time>2023-03-05T12:43:11Z</time>
      </trkpt>
      <trkpt lat="44.99613" lon="6.46311">
        <ele>1907.87</ele>
        <time>2023-03-05T12:43:16Z</time>
      </trkpt>
      <trkpt lat="44.99614" lon="6.46331">
        <ele>1901.63</ele>
        <time>2023-03-05T12:43:22Z</time>
      </trkpt>
      <trkpt lat="44.99621" lon="6.46344">
        <ele>1895.86</ele>
        <time>2023-03-05T12:43:25Z</time>
      </trkpt>
      <trkpt lat="44.9963" lon="6.46368">
        <ele>1887.69</ele>
        <time>2023-03-05T12:43:31Z</time>
      </trkpt>
      <trkpt lat="44.99628" lon="6.46393">
        <ele>1879.51</ele>
        <time>2023-03-05T12:43:36Z</time>
      </trkpt>
      <trkpt lat="44.99628" lon="6.46406">
        <ele>1874.71</ele>
        <time>2023-03-05T12:43:38Z</time>
      </trkpt>
      <trkpt lat="44.9962" lon="6.46416">
        <ele>1870.38</ele>
        <time>2023-03-05T12:43:41Z</time>
      </trkpt>
      <trkpt lat="44.99632" lon="6.46431">
        <ele>1863.17</ele>
        <time>2023-03-05T12:43:45Z</time>
      </trkpt>
      <trkpt lat="44.99626" lon="6.46442">
        <ele>1860.29</ele>
        <time>2023-03-05T12:43:47Z</time>
      </trkpt>
      <trkpt lat="44.99627" lon="6.46453">
        <ele>1855.48</ele>
        <time>2023-03-05T12:43:51Z</time>
      </trkpt>
      <trkpt lat="44.99633" lon="6.46463">
        <ele>1852.12</ele>
        <time>2023-03-05T12:43:54Z</time>
      </trkpt>
      <trkpt lat="44.99638" lon="6.46478">
        <ele>1844.91</ele>
        <time>2023-03-05T12:43:59Z</time>
      </trkpt>
      <trkpt lat="44.99636" lon="6.46494">
        <ele>1839.62</ele>
        <time>2023-03-05T12:44:03Z</time>
      </trkpt>
      <trkpt lat="44.99643" lon="6.46511">
        <ele>1834.81</ele>
        <time>2023-03-05T12:45:19Z</time>
      </trkpt>
      <trkpt lat="44.99644" lon="6.46533">
        <ele>1828.08</ele>
        <time>2023-03-05T12:45:24Z</time>
      </trkpt>
      <trkpt lat="44.99646" lon="6.46553">
        <ele>1820.87</ele>
        <time>2023-03-05T12:45:29Z</time>
      </trkpt>
      <trkpt lat="44.99647" lon="6.46571">
        <ele>1816.55</ele>
        <time>2023-03-05T12:45:33Z</time>
      </trkpt>
      <trkpt lat="44.99643" lon="6.46583">
        <ele>1812.7</ele>
        <time>2023-03-05T12:45:36Z</time>
      </trkpt>
      <trkpt lat="44.99645" lon="6.46601">
        <ele>1805.49</ele>
        <time>2023-03-05T12:45:40Z</time>
      </trkpt>
      <trkpt lat="44.99648" lon="6.46616">
        <ele>1800.69</ele>
        <time>2023-03-05T12:45:44Z</time>
      </trkpt>
      <trkpt lat="44.9965" lon="6.46631">
        <ele>1797.8</ele>
        <time>2023-03-05T12:45:47Z</time>
      </trkpt>
      <trkpt lat="44.99644" lon="6.46656">
        <ele>1789.63</ele>
        <time>2023-03-05T12:45:52Z</time>
      </trkpt>
      <trkpt lat="44.99637" lon="6.46675">
        <ele>1782.42</ele>
        <time>2023-03-05T12:45:58Z</time>
      </trkpt>
      <trkpt lat="44.99635" lon="6.46688">
        <ele>1779.54</ele>
        <time>2023-03-05T12:46:01Z</time>
      </trkpt>
      <trkpt lat="44.99635" lon="6.46697">
        <ele>1775.21</ele>
        <time>2023-03-05T12:46:47Z</time>
      </trkpt>
      <trkpt lat="44.99629" lon="6.46717">
        <ele>1771.85</ele>
        <time>2023-03-05T12:47:29Z</time>
      </trkpt>
      <trkpt lat="44.9963" lon="6.46734">
        <ele>1767.52</ele>
        <time>2023-03-05T12:47:32Z</time>
      </trkpt>
      <trkpt lat="44.99629" lon="6.46751">
        <ele>1762.23</ele>
        <time>2023-03-05T12:47:37Z</time>
      </trkpt>
      <trkpt lat="44.99624" lon="6.46772">
        <ele>1757.91</ele>
        <time>2023-03-05T12:47:41Z</time>
      </trkpt>
      <trkpt lat="44.99624" lon="6.4679">
        <ele>1751.18</ele>
        <time>2023-03-05T12:47:45Z</time>
      </trkpt>
      <trkpt lat="44.99621" lon="6.46817">
        <ele>1744.93</ele>
        <time>2023-03-05T12:47:52Z</time>
      </trkpt>
      <trkpt lat="44.99623" lon="6.46834">
        <ele>1740.6</ele>
        <time>2023-03-05T12:47:56Z</time>
      </trkpt>
      <trkpt lat="44.99621" lon="6.4685">
        <ele>1736.76</ele>
        <time>2023-03-05T12:47:59Z</time>
      </trkpt>
      <trkpt lat="44.99622" lon="6.46861">
        <ele>1733.88</ele>
        <time>2023-03-05T12:48:02Z</time>
      </trkpt>
      <trkpt lat="44.99625" lon="6.46882">
        <ele>1730.51</ele>
        <time>2023-03-05T12:48:06Z</time>
      </trkpt>
      <trkpt lat="44.99623" lon="6.46895">
        <ele>1727.63</ele>
        <time>2023-03-05T12:48:08Z</time>
      </trkpt>
      <trkpt lat="44.99623" lon="6.4691">
        <ele>1722.82</ele>
        <time>2023-03-05T12:48:11Z</time>
      </trkpt>
      <trkpt lat="44.99622" lon="6.46929">
        <ele>1720.42</ele>
        <time>2023-03-05T12:48:14Z</time>
      </trkpt>
      <trkpt lat="44.99615" lon="6.46944">
        <ele>1718.01</ele>
        <time>2023-03-05T12:48:17Z</time>
      </trkpt>
      <trkpt lat="44.9962" lon="6.46954">
        <ele>1714.65</ele>
        <time>2023-03-05T12:48:19Z</time>
      </trkpt>
      <trkpt lat="44.9962" lon="6.46971">
        <ele>1711.28</ele>
        <time>2023-03-05T12:48:22Z</time>
      </trkpt>
      <trkpt lat="44.99624" lon="6.46996">
        <ele>1703.11</ele>
        <time>2023-03-05T12:48:28Z</time>
      </trkpt>
      <trkpt lat="44.99621" lon="6.47012">
        <ele>1701.19</ele>
        <time>2023-03-05T12:49:36Z</time>
      </trkpt>
      <trkpt lat="44.99621" lon="6.4703">
        <ele>1696.86</ele>
        <time>2023-03-05T12:49:40Z</time>
      </trkpt>
      <trkpt lat="44.99621" lon="6.47048">
        <ele>1693.02</ele>
        <time>2023-03-05T12:49:44Z</time>
      </trkpt>
      <trkpt lat="44.99635" lon="6.47067">
        <ele>1685.81</ele>
        <time>2023-03-05T12:49:50Z</time>
      </trkpt>
      <trkpt lat="44.99636" lon="6.47083">
        <ele>1682.93</ele>
        <time>2023-03-05T12:49:54Z</time>
      </trkpt>
      <trkpt lat="44.99634" lon="6.47096">
        <ele>1678.12</ele>
        <time>2023-03-05T12:49:59Z</time>
      </trkpt>
      <trkpt lat="44.99647" lon="6.47108">
        <ele>1675.23</ele>
        <time>2023-03-05T12:50:05Z</time>
      </trkpt>
      <trkpt lat="44.9965" lon="6.47129">
        <ele>1670.91</ele>
        <time>2023-03-05T12:50:11Z</time>
      </trkpt>
      <trkpt lat="44.99648" lon="6.47147">
        <ele>1667.54</ele>
        <time>2023-03-05T12:50:16Z</time>
      </trkpt>
      <trkpt lat="44.99652" lon="6.4716">
        <ele>1664.18</ele>
        <time>2023-03-05T12:50:19Z</time>
      </trkpt>
      <trkpt lat="44.9965" lon="6.4717">
        <ele>1660.81</ele>
        <time>2023-03-05T12:50:35Z</time>
      </trkpt>
      <trkpt lat="44.99649" lon="6.4719">
        <ele>1657.93</ele>
        <time>2023-03-05T12:50:39Z</time>
      </trkpt>
      <trkpt lat="44.99645" lon="6.47204">
        <ele>1655.05</ele>
        <time>2023-03-05T12:50:43Z</time>
      </trkpt>
      <trkpt lat="44.99652" lon="6.47213">
        <ele>1651.68</ele>
        <time>2023-03-05T12:50:48Z</time>
      </trkpt>
      <trkpt lat="44.99647" lon="6.47231">
        <ele>1649.28</ele>
        <time>2023-03-05T12:50:54Z</time>
      </trkpt>
      <trkpt lat="44.9965" lon="6.47243">
        <ele>1646.88</ele>
        <time>2023-03-05T12:51:04Z</time>
      </trkpt>
      <trkpt lat="44.99658" lon="6.47261">
        <ele>1643.03</ele>
        <time>2023-03-05T12:51:14Z</time>
      </trkpt>
      <trkpt lat="44.99653" lon="6.47276">
        <ele>1639.19</ele>
        <time>2023-03-05T12:51:19Z</time>
      </trkpt>
      <trkpt lat="44.99656" lon="6.47289">
        <ele>1636.3</ele>
        <time>2023-03-05T12:51:26Z</time>
      </trkpt>
      <trkpt lat="44.99655" lon="6.47303">
        <ele>1633.42</ele>
        <time>2023-03-05T12:51:53Z</time>
      </trkpt>
      <trkpt lat="44.99643" lon="6.47323">
        <ele>1630.53</ele>
        <time>2023-03-05T12:52:20Z</time>
      </trkpt>
      <trkpt lat="44.99635" lon="6.47339">
        <ele>1627.17</ele>
        <time>2023-03-05T12:52:25Z</time>
      </trkpt>
      <trkpt lat="44.99623" lon="6.47353">
        <ele>1624.28</ele>
        <time>2023-03-05T12:52:32Z</time>
      </trkpt>
      <trkpt lat="44.99627" lon="6.47367">
        <ele>1620.44</ele>
        <time>2023-03-05T12:52:36Z</time>
      </trkpt>
      <trkpt lat="44.99628" lon="6.47391">
        <ele>1616.59</ele>
        <time>2023-03-05T12:52:44Z</time>
      </trkpt>
      <trkpt lat="44.9962" lon="6.47413">
        <ele>1612.27</ele>
        <time>2023-03-05T12:52:50Z</time>
      </trkpt>
      <trkpt lat="44.99598" lon="6.47414">
        <ele>1610.83</ele>
        <time>2023-03-05T12:53:08Z</time>
      </trkpt>
      <trkpt lat="44.99599" lon="6.47442">
        <ele>1606.5</ele>
        <time>2023-03-05T12:53:14Z</time>
      </trkpt>
      <trkpt lat="44.996" lon="6.47461">
        <ele>1604.58</ele>
        <time>2023-03-05T12:53:21Z</time>
      </trkpt>
      <trkpt lat="44.99607" lon="6.47471">
        <ele>1600.73</ele>
        <time>2023-03-05T12:53:24Z</time>
      </trkpt>
      <trkpt lat="44.99597" lon="6.47493">
        <ele>1596.41</ele>
        <time>2023-03-05T12:53:34Z</time>
      </trkpt>
      <trkpt lat="44.99599" lon="6.47506">
        <ele>1594.48</ele>
        <time>2023-03-05T12:53:37Z</time>
      </trkpt>
      <trkpt lat="44.99601" lon="6.47536">
        <ele>1590.16</ele>
        <time>2023-03-05T12:53:44Z</time>
      </trkpt>
      <trkpt lat="44.99598" lon="6.47575">
        <ele>1585.35</ele>
        <time>2023-03-05T12:54:00Z</time>
      </trkpt>
      <trkpt lat="44.99609" lon="6.47584">
        <ele>1583.43</ele>
        <time>2023-03-05T12:54:02Z</time>
      </trkpt>
      <trkpt lat="44.99621" lon="6.47588">
        <ele>1582.47</ele>
        <time>2023-03-05T12:54:04Z</time>
      </trkpt>
      <trkpt lat="44.99633" lon="6.47593">
        <ele>1581.99</ele>
        <time>2023-03-05T12:54:06Z</time>
      </trkpt>
      <trkpt lat="44.99648" lon="6.47601">
        <ele>1581.51</ele>
        <time>2023-03-05T12:54:09Z</time>
      </trkpt>
      <trkpt lat="44.99678" lon="6.47604">
        <ele>1579.58</ele>
        <time>2023-03-05T12:54:19Z</time>
      </trkpt>
      <trkpt lat="44.99687" lon="6.47607">
        <ele>1580.54</ele>
        <time>2023-03-05T12:54:41Z</time>
      </trkpt>
      <trkpt lat="44.99689" lon="6.47612">
        <ele>1578.62</ele>
        <time>2023-03-05T12:55:50Z</time>
      </trkpt>
      <trkpt lat="44.99709" lon="6.47642">
        <ele>1575.74</ele>
        <time>2023-03-05T12:56:02Z</time>
      </trkpt>
      <trkpt lat="44.99719" lon="6.47642">
        <ele>1574.78</ele>
        <time>2023-03-05T12:56:04Z</time>
      </trkpt>
      <trkpt lat="44.99746" lon="6.47641">
        <ele>1573.82</ele>
        <time>2023-03-05T12:56:13Z</time>
      </trkpt>
      <trkpt lat="44.99756" lon="6.4764">
        <ele>1573.82</ele>
        <time>2023-03-05T12:56:19Z</time>
      </trkpt>
      <trkpt lat="44.99772" lon="6.47632">
        <ele>1576.22</ele>
        <time>2023-03-05T12:56:46Z</time>
      </trkpt>
      <trkpt lat="44.99792" lon="6.47636">
        <ele>1576.22</ele>
        <time>2023-03-05T12:56:58Z</time>
      </trkpt>
      <trkpt lat="44.99802" lon="6.47634">
        <ele>1574.78</ele>
        <time>2023-03-05T12:57:03Z</time>
      </trkpt>
      <trkpt lat="44.9981" lon="6.47643">
        <ele>1573.82</ele>
        <time>2023-03-05T12:57:07Z</time>
      </trkpt>
      <trkpt lat="44.99814" lon="6.47656">
        <ele>1573.33</ele>
        <time>2023-03-05T12:57:09Z</time>
      </trkpt>
      <trkpt lat="44.99815" lon="6.4767">
        <ele>1572.85</ele>
        <time>2023-03-05T12:57:11Z</time>
      </trkpt>
      <trkpt lat="44.99817" lon="6.47688">
        <ele>1571.89</ele>
        <time>2023-03-05T12:57:14Z</time>
      </trkpt>
      <trkpt lat="44.99817" lon="6.47701">
        <ele>1572.37</ele>
        <time>2023-03-05T12:57:20Z</time>
      </trkpt>
      <trkpt lat="44.99812" lon="6.47714">
        <ele>1573.33</ele>
        <time>2023-03-05T12:58:12Z</time>
      </trkpt>
      <trkpt lat="44.99801" lon="6.47715">
        <ele>1573.33</ele>
        <time>2023-03-05T12:58:37Z</time>
      </trkpt>
      <trkpt lat="44.99791" lon="6.47715">
        <ele>1573.33</ele>
        <time>2023-03-05T12:58:49Z</time>
      </trkpt>
      <trkpt lat="44.9978" lon="6.47717">
        <ele>1573.82</ele>
        <time>2023-03-05T12:59:01Z</time>
      </trkpt>
      <trkpt lat="44.99771" lon="6.47723">
        <ele>1573.82</ele>
        <time>2023-03-05T12:59:11Z</time>
      </trkpt>
      <trkpt lat="44.99761" lon="6.47731">
        <ele>1572.37</ele>
        <time>2023-03-05T12:59:22Z</time>
      </trkpt>
      <trkpt lat="44.99748" lon="6.4774">
        <ele>1572.37</ele>
        <time>2023-03-05T12:59:37Z</time>
      </trkpt>
      <trkpt lat="44.99738" lon="6.47747">
        <ele>1571.41</ele>
        <time>2023-03-05T12:59:51Z</time>
      </trkpt>
      <trkpt lat="44.99736" lon="6.47757">
        <ele>1571.89</ele>
        <time>2023-03-05T13:00:34Z</time>
      </trkpt>
      <trkpt lat="44.99738" lon="6.47758">
        <ele>1569.49</ele>
        <time>2023-03-05T13:02:00Z</time>
      </trkpt>
      <trkpt lat="44.99737" lon="6.4776">
        <ele>1571.41</ele>
        <time>2023-03-05T13:02:30Z</time>
      </trkpt>
    </trkseg>
  </trk>
</gpx>